createdAt,value
2022-09-21T00:00:04.702Z,1008.17
2022-09-21T00:01:04.743Z,1008.17
2022-09-21T00:02:04.726Z,1008.20
2022-09-21T00:03:04.680Z,1008.18
2022-09-21T00:04:05.668Z,1008.23
2022-09-21T00:05:04.644Z,1008.17
2022-09-21T00:06:04.625Z,1008.25
2022-09-21T00:07:04.628Z,1008.18
2022-09-21T00:08:04.613Z,1008.19
2022-09-21T00:09:05.552Z,1008.20
2022-09-21T00:10:05.533Z,1008.17
2022-09-21T00:11:04.573Z,1008.17
2022-09-21T00:12:04.545Z,1008.18
2022-09-21T00:13:04.545Z,1008.18
2022-09-21T00:14:04.717Z,1008.18
2022-09-21T00:15:04.516Z,1008.20
2022-09-21T00:16:04.497Z,1008.21
2022-09-21T00:17:04.486Z,1008.19
2022-09-21T00:18:04.476Z,1008.19
2022-09-21T00:19:04.467Z,1008.19
2022-09-21T00:20:04.446Z,1008.21
2022-09-21T00:21:04.437Z,1008.20
2022-09-21T00:22:04.427Z,1008.22
2022-09-21T00:23:04.408Z,1008.24
2022-09-21T00:24:04.387Z,1008.20
2022-09-21T00:25:04.385Z,1008.21
2022-09-21T00:26:04.368Z,1008.22
2022-09-21T00:27:04.360Z,1008.23
2022-09-21T00:28:04.339Z,1008.23
2022-09-21T00:29:04.349Z,1008.25
2022-09-21T00:30:04.309Z,1008.27
2022-09-21T00:31:04.308Z,1008.26
2022-09-21T00:32:04.374Z,1008.30
2022-09-21T00:33:04.277Z,1008.25
2022-09-21T00:34:04.260Z,1008.27
2022-09-21T00:35:05.196Z,1008.26
2022-09-21T00:36:04.243Z,1008.21
2022-09-21T00:37:04.238Z,1008.22
2022-09-21T00:38:04.201Z,1008.24
2022-09-21T00:39:04.201Z,1008.26
2022-09-21T00:40:04.249Z,1008.25
2022-09-21T00:41:04.173Z,1008.28
2022-09-21T00:42:04.163Z,1008.27
2022-09-21T00:43:04.144Z,1008.28
2022-09-21T00:44:04.122Z,1008.30
2022-09-21T00:45:04.122Z,1008.24
2022-09-21T00:46:04.154Z,1008.30
2022-09-21T00:47:04.093Z,1008.29
2022-09-21T00:48:04.073Z,1008.25
2022-09-21T00:49:04.063Z,1008.32
2022-09-21T00:50:04.052Z,1008.31
2022-09-21T00:51:04.040Z,1008.32
2022-09-21T00:52:04.038Z,1008.33
2022-09-21T00:53:04.012Z,1008.31
2022-09-21T00:54:03.994Z,1008.30
2022-09-21T00:55:03.984Z,1008.25
2022-09-21T00:56:03.966Z,1008.31
2022-09-21T00:57:03.964Z,1008.31
2022-09-21T00:58:03.935Z,1008.31
2022-09-21T00:59:03.926Z,1008.31
2022-09-21T01:00:03.917Z,1008.34
2022-09-21T01:01:03.945Z,1008.31
2022-09-21T01:02:03.930Z,1008.28
2022-09-21T01:03:03.878Z,1008.33
2022-09-21T01:04:03.857Z,1008.29
2022-09-21T01:05:03.846Z,1008.27
2022-09-21T01:06:03.836Z,1008.27
2022-09-21T01:07:03.848Z,1008.25
2022-09-21T01:08:03.816Z,1008.29
2022-09-21T01:09:03.797Z,1008.25
2022-09-21T01:10:03.781Z,1008.26
2022-09-21T01:11:03.771Z,1008.28
2022-09-21T01:12:03.759Z,1008.27
2022-09-21T01:13:03.740Z,1008.34
2022-09-21T01:14:03.730Z,1008.35
2022-09-21T01:15:03.721Z,1008.36
2022-09-21T01:16:03.722Z,1008.35
2022-09-21T01:17:03.700Z,1008.41
2022-09-21T01:18:03.673Z,1008.39
2022-09-21T01:19:03.660Z,1008.41
2022-09-21T01:20:03.641Z,1008.41
2022-09-21T01:21:03.630Z,1008.42
2022-09-21T01:22:03.620Z,1008.47
2022-09-21T01:23:03.608Z,1008.46
2022-09-21T01:24:03.591Z,1008.47
2022-09-21T01:25:03.581Z,1008.46
2022-09-21T01:26:03.563Z,1008.49
2022-09-21T01:27:03.563Z,1008.53
2022-09-21T01:28:03.537Z,1008.53
2022-09-21T01:29:03.531Z,1008.56
2022-09-21T01:30:03.513Z,1008.54
2022-09-21T01:31:37.723Z,1008.54
2022-09-21T01:32:03.480Z,1008.52
2022-09-21T01:33:03.462Z,1008.55
2022-09-21T01:34:03.459Z,1008.57
2022-09-21T01:35:03.442Z,1008.55
2022-09-21T01:36:03.432Z,1008.55
2022-09-21T01:37:03.423Z,1008.51
2022-09-21T01:38:03.403Z,1008.57
2022-09-21T01:39:03.385Z,1008.51
2022-09-21T01:40:03.437Z,1008.56
2022-09-21T01:41:03.374Z,1008.56
2022-09-21T01:42:04.294Z,1008.56
2022-09-21T01:43:03.334Z,1008.57
2022-09-21T01:44:03.326Z,1008.57
2022-09-21T01:45:03.317Z,1008.59
2022-09-21T01:46:04.313Z,1008.54
2022-09-21T01:47:03.286Z,1008.56
2022-09-21T01:48:03.267Z,1008.59
2022-09-21T01:49:03.253Z,1008.62
2022-09-21T01:50:03.236Z,1008.59
2022-09-21T01:51:03.238Z,1008.64
2022-09-21T01:52:03.216Z,1008.58
2022-09-21T01:53:03.197Z,1008.64
2022-09-21T01:54:03.187Z,1008.61
2022-09-21T01:55:03.167Z,1008.64
2022-09-21T01:56:03.170Z,1008.64
2022-09-21T01:57:03.149Z,1008.63
2022-09-21T01:58:03.137Z,1008.63
2022-09-21T01:59:03.124Z,1008.58
2022-09-21T02:00:03.108Z,1008.58
2022-09-21T02:01:03.161Z,1008.63
2022-09-21T02:02:03.182Z,1008.61
2022-09-21T02:03:03.077Z,1008.64
2022-09-21T02:04:03.060Z,1008.62
2022-09-21T02:05:03.040Z,1008.60
2022-09-21T02:06:03.038Z,1008.60
2022-09-21T02:07:03.012Z,1008.60
2022-09-21T02:08:03.008Z,1008.59
2022-09-21T02:09:02.982Z,1008.59
2022-09-21T02:10:02.993Z,1008.61
2022-09-21T02:11:02.958Z,1008.58
2022-09-21T02:12:02.951Z,1008.56
2022-09-21T02:13:02.932Z,1008.58
2022-09-21T02:14:02.921Z,1008.54
2022-09-21T02:15:02.910Z,1008.57
2022-09-21T02:16:02.957Z,1008.57
2022-09-21T02:17:02.881Z,1008.58
2022-09-21T02:18:02.863Z,1008.55
2022-09-21T02:19:02.852Z,1008.58
2022-09-21T02:20:02.843Z,1008.55
2022-09-21T02:21:02.824Z,1008.60
2022-09-21T02:22:02.813Z,1008.58
2022-09-21T02:23:02.793Z,1008.62
2022-09-21T02:24:02.794Z,1008.59
2022-09-21T02:25:02.774Z,1008.64
2022-09-21T02:26:02.772Z,1008.56
2022-09-21T02:27:02.744Z,1008.63
2022-09-21T02:28:02.735Z,1008.60
2022-09-21T02:29:02.714Z,1008.61
2022-09-21T02:30:02.714Z,1008.65
2022-09-21T02:31:02.728Z,1008.59
2022-09-21T02:32:02.685Z,1008.59
2022-09-21T02:33:02.665Z,1008.58
2022-09-21T02:34:02.655Z,1008.58
2022-09-21T02:35:02.652Z,1008.61
2022-09-21T02:36:02.626Z,1008.58
2022-09-21T02:37:02.606Z,1008.60
2022-09-21T02:38:02.597Z,1008.61
2022-09-21T02:39:02.586Z,1008.63
2022-09-21T02:40:02.619Z,1008.60
2022-09-21T02:41:02.556Z,1008.60
2022-09-21T02:42:02.547Z,1008.64
2022-09-21T02:43:02.530Z,1008.59
2022-09-21T02:44:02.518Z,1008.63
2022-09-21T02:45:02.508Z,1008.62
2022-09-21T02:46:02.496Z,1008.60
2022-09-21T02:47:02.500Z,1008.61
2022-09-21T02:48:02.474Z,1008.61
2022-09-21T02:49:02.449Z,1008.59
2022-09-21T02:50:02.457Z,1008.59
2022-09-21T02:51:02.427Z,1008.58
2022-09-21T02:52:02.420Z,1008.59
2022-09-21T02:53:02.399Z,1008.61
2022-09-21T02:54:02.406Z,1008.57
2022-09-21T02:55:02.370Z,1008.61
2022-09-21T02:56:02.362Z,1008.61
2022-09-21T02:57:02.341Z,1008.63
2022-09-21T02:58:02.332Z,1008.64
2022-09-21T02:59:02.320Z,1008.63
2022-09-21T03:00:02.311Z,1008.66
2022-09-21T03:01:02.326Z,1008.69
2022-09-21T03:02:02.317Z,1008.68
2022-09-21T03:03:02.262Z,1008.68
2022-09-21T03:04:02.270Z,1008.70
2022-09-21T03:05:02.232Z,1008.68
2022-09-21T03:06:02.229Z,1008.71
2022-09-21T03:07:02.202Z,1008.75
2022-09-21T03:08:02.203Z,1008.70
2022-09-21T03:09:02.192Z,1008.73
2022-09-21T03:10:02.203Z,1008.73
2022-09-21T03:11:02.160Z,1008.77
2022-09-21T03:12:02.148Z,1008.79
2022-09-21T03:13:02.133Z,1008.75
2022-09-21T03:14:02.125Z,1008.75
2022-09-21T03:15:02.105Z,1008.76
2022-09-21T03:16:02.127Z,1008.79
2022-09-21T03:17:02.085Z,1008.80
2022-09-21T03:18:02.064Z,1008.80
2022-09-21T03:19:02.057Z,1008.81
2022-09-21T03:20:02.035Z,1008.83
2022-09-21T03:21:02.015Z,1008.82
2022-09-21T03:22:02.005Z,1008.84
2022-09-21T03:23:01.997Z,1008.82
2022-09-21T03:24:01.986Z,1008.84
2022-09-21T03:25:01.976Z,1008.84
2022-09-21T03:26:01.956Z,1008.83
2022-09-21T03:27:01.951Z,1008.82
2022-09-21T03:28:01.930Z,1008.83
2022-09-21T03:29:01.942Z,1008.81
2022-09-21T03:30:02.638Z,1008.85
2022-09-21T03:31:01.946Z,1008.86
2022-09-21T03:32:01.878Z,1008.89
2022-09-21T03:33:01.858Z,1008.89
2022-09-21T03:34:01.871Z,1008.87
2022-09-21T03:35:01.828Z,1008.89
2022-09-21T03:36:01.831Z,1008.89
2022-09-21T03:37:01.805Z,1008.91
2022-09-21T03:38:01.797Z,1008.89
2022-09-21T03:39:01.789Z,1008.86
2022-09-21T03:40:01.808Z,1008.85
2022-09-21T03:41:01.760Z,1008.90
2022-09-21T03:42:01.740Z,1008.90
2022-09-21T03:43:01.735Z,1008.92
2022-09-21T03:44:01.719Z,1008.89
2022-09-21T03:45:01.700Z,1008.93
2022-09-21T03:46:02.741Z,1008.92
2022-09-21T03:47:01.683Z,1008.92
2022-09-21T03:48:01.660Z,1008.91
2022-09-21T03:49:01.650Z,1008.88
2022-09-21T03:50:01.641Z,1009.01
2022-09-21T03:51:01.621Z,1008.96
2022-09-21T03:52:01.613Z,1008.97
2022-09-21T03:53:01.592Z,1008.97
2022-09-21T03:54:01.612Z,1008.96
2022-09-21T03:55:01.562Z,1008.92
2022-09-21T03:56:01.552Z,1008.99
2022-09-21T03:57:01.548Z,1009.00
2022-09-21T03:58:01.529Z,1008.98
2022-09-21T03:59:01.529Z,1009.03
2022-09-21T04:00:01.503Z,1009.06
2022-09-21T04:01:01.483Z,1009.03
2022-09-21T04:02:01.474Z,1009.05
2022-09-21T04:03:01.523Z,1009.06
2022-09-21T04:04:01.454Z,1009.06
2022-09-21T04:05:01.431Z,1009.01
2022-09-21T04:06:01.424Z,1009.09
2022-09-21T04:07:01.411Z,1009.06
2022-09-21T04:08:01.395Z,1009.07
2022-09-21T04:09:01.384Z,1009.09
2022-09-21T04:10:01.367Z,1009.08
2022-09-21T04:11:01.546Z,1009.10
2022-09-21T04:13:06.205Z,1009.11
2022-09-21T04:13:10.950Z,1009.11
2022-09-21T04:14:10.975Z,1009.11
2022-09-21T04:15:10.923Z,1009.12
2022-09-21T04:16:10.959Z,1009.11
2022-09-21T04:17:10.896Z,1009.11
2022-09-21T04:18:10.887Z,1009.14
2022-09-21T04:19:10.885Z,1009.14
2022-09-21T04:20:10.857Z,1009.14
2022-09-21T04:21:10.857Z,1009.12
2022-09-21T04:22:10.837Z,1009.11
2022-09-21T04:23:10.817Z,1009.15
2022-09-21T04:24:10.818Z,1009.14
2022-09-21T04:25:10.790Z,1009.14
2022-09-21T04:26:10.789Z,1009.10
2022-09-21T04:27:10.767Z,1009.15
2022-09-21T04:28:10.767Z,1009.14
2022-09-21T04:29:10.746Z,1009.18
2022-09-21T04:30:10.729Z,1009.23
2022-09-21T04:31:11.599Z,1009.13
2022-09-21T04:32:10.699Z,1009.20
2022-09-21T04:33:10.687Z,1009.17
2022-09-21T04:34:10.681Z,1009.20
2022-09-21T04:35:10.673Z,1009.26
2022-09-21T04:36:10.650Z,1009.22
2022-09-21T04:37:10.630Z,1009.24
2022-09-21T04:38:10.630Z,1009.23
2022-09-21T04:39:10.621Z,1009.21
2022-09-21T04:40:10.642Z,1009.24
2022-09-21T04:41:10.584Z,1009.24
2022-09-21T04:42:10.575Z,1009.26
2022-09-21T04:43:10.554Z,1009.25
2022-09-21T04:44:10.552Z,1009.22
2022-09-21T04:45:10.523Z,1009.24
2022-09-21T04:46:10.549Z,1009.28
2022-09-21T04:47:10.493Z,1009.26
2022-09-21T04:48:10.493Z,1009.27
2022-09-21T04:49:10.482Z,1009.27
2022-09-21T04:50:10.464Z,1009.28
2022-09-21T04:51:10.443Z,1009.28
2022-09-21T04:52:10.441Z,1009.26
2022-09-21T04:53:10.417Z,1009.27
2022-09-21T04:54:10.414Z,1009.31
2022-09-21T04:55:10.393Z,1009.26
2022-09-21T04:56:10.385Z,1009.29
2022-09-21T04:57:10.376Z,1009.27
2022-09-21T04:58:10.354Z,1009.30
2022-09-21T04:59:10.354Z,1009.32
2022-09-21T05:00:10.335Z,1009.29
2022-09-21T05:01:10.364Z,1009.30
2022-09-21T05:02:10.319Z,1009.31
2022-09-21T05:03:10.285Z,1009.32
2022-09-21T05:04:10.295Z,1009.32
2022-09-21T05:05:10.267Z,1009.28
2022-09-21T05:06:10.288Z,1009.30
2022-09-21T05:07:10.237Z,1009.35
2022-09-21T05:08:10.237Z,1009.37
2022-09-21T05:09:10.217Z,1009.41
2022-09-21T05:10:10.207Z,1009.37
2022-09-21T05:11:10.187Z,1009.36
2022-09-21T05:12:10.178Z,1009.34
2022-09-21T05:13:10.157Z,1009.37
2022-09-21T05:14:10.157Z,1009.35
2022-09-21T05:15:10.130Z,1009.42
2022-09-21T05:16:10.139Z,1009.40
2022-09-21T05:17:10.109Z,1009.42
2022-09-21T05:18:10.098Z,1009.44
2022-09-21T05:19:11.049Z,1009.43
2022-09-21T05:20:10.070Z,1009.39
2022-09-21T05:21:10.052Z,1009.42
2022-09-21T05:22:10.040Z,1009.43
2022-09-21T05:23:12.602Z,1009.44
2022-09-21T05:24:11.028Z,1009.45
2022-09-21T05:25:10.006Z,1009.49
2022-09-21T05:26:09.990Z,1009.48
2022-09-21T05:27:09.980Z,1009.48
2022-09-21T05:28:09.966Z,1009.50
2022-09-21T05:29:09.957Z,1009.53
2022-09-21T05:30:09.941Z,1009.52
2022-09-21T05:31:17.629Z,1009.53
2022-09-21T05:32:10.911Z,1009.53
2022-09-21T05:33:10.841Z,1009.51
2022-09-21T05:34:09.899Z,1009.54
2022-09-21T05:35:10.812Z,1009.57
2022-09-21T05:36:09.858Z,1009.59
2022-09-21T05:37:09.843Z,1009.57
2022-09-21T05:38:09.833Z,1009.60
2022-09-21T05:39:09.830Z,1009.58
2022-09-21T05:40:09.835Z,1009.60
2022-09-21T05:41:09.796Z,1009.56
2022-09-21T05:42:09.783Z,1009.58
2022-09-21T05:43:09.773Z,1009.58
2022-09-21T05:44:09.764Z,1009.54
2022-09-21T05:45:09.743Z,1009.61
2022-09-21T05:46:09.739Z,1009.57
2022-09-21T05:47:09.714Z,1009.55
2022-09-21T05:48:09.713Z,1009.58
2022-09-21T05:49:09.703Z,1009.59
2022-09-21T05:50:09.674Z,1009.59
2022-09-21T05:51:09.663Z,1009.62
2022-09-21T05:52:09.653Z,1009.65
2022-09-21T05:53:09.645Z,1009.62
2022-09-21T05:54:09.626Z,1009.61
2022-09-21T05:55:09.605Z,1009.64
2022-09-21T05:56:09.596Z,1009.66
2022-09-21T05:57:09.586Z,1009.68
2022-09-21T05:58:09.576Z,1009.64
2022-09-21T05:59:09.554Z,1009.65
2022-09-21T06:00:09.539Z,1009.66
2022-09-21T06:01:09.539Z,1009.67
2022-09-21T06:02:09.541Z,1009.65
2022-09-21T06:03:10.821Z,1009.63
2022-09-21T06:04:09.562Z,1009.72
2022-09-21T06:05:09.478Z,1009.64
2022-09-21T06:06:09.468Z,1009.57
2022-09-21T06:07:09.449Z,1009.61
2022-09-21T06:08:09.449Z,1009.65
2022-09-21T06:09:09.420Z,1009.62
2022-09-21T06:10:09.409Z,1009.64
2022-09-21T06:11:09.399Z,1009.64
2022-09-21T06:12:09.385Z,1009.66
2022-09-21T06:13:09.380Z,1009.65
2022-09-21T06:14:09.350Z,1009.69
2022-09-21T06:15:09.344Z,1009.66
2022-09-21T06:16:09.320Z,1009.64
2022-09-21T06:17:09.310Z,1009.70
2022-09-21T06:18:10.637Z,1009.66
2022-09-21T06:19:09.311Z,1009.65
2022-09-21T06:20:09.270Z,1009.75
2022-09-21T06:21:09.264Z,1009.71
2022-09-21T06:22:09.252Z,1009.68
2022-09-21T06:23:10.220Z,1009.71
2022-09-21T06:24:09.222Z,1009.76
2022-09-21T06:25:09.212Z,1009.74
2022-09-21T06:26:09.192Z,1009.74
2022-09-21T06:27:09.186Z,1009.76
2022-09-21T06:28:09.173Z,1009.81
2022-09-21T06:29:09.165Z,1009.79
2022-09-21T06:30:09.133Z,1009.80
2022-09-21T06:31:09.152Z,1009.82
2022-09-21T06:32:09.113Z,1009.82
2022-09-21T06:33:09.114Z,1009.81
2022-09-21T06:34:09.085Z,1009.81
2022-09-21T06:35:09.074Z,1009.84
2022-09-21T06:36:09.064Z,1009.79
2022-09-21T06:37:09.045Z,1009.79
2022-09-21T06:38:09.035Z,1009.78
2022-09-21T06:39:09.027Z,1009.73
2022-09-21T06:40:09.016Z,1009.75
2022-09-21T06:41:08.998Z,1009.75
2022-09-21T06:42:08.976Z,1009.73
2022-09-21T06:43:08.976Z,1009.73
2022-09-21T06:44:08.955Z,1009.72
2022-09-21T06:45:08.946Z,1009.72
2022-09-21T06:46:08.997Z,1009.72
2022-09-21T06:47:08.917Z,1009.74
2022-09-21T06:48:08.906Z,1009.75
2022-09-21T06:49:08.908Z,1009.75
2022-09-21T06:50:08.867Z,1009.76
2022-09-21T06:51:08.864Z,1009.75
2022-09-21T06:52:08.839Z,1009.76
2022-09-21T06:53:08.848Z,1009.81
2022-09-21T06:54:08.818Z,1009.79
2022-09-21T06:55:08.811Z,1009.79
2022-09-21T06:56:08.791Z,1009.79
2022-09-21T06:57:08.784Z,1009.81
2022-09-21T06:58:08.769Z,1009.80
2022-09-21T06:59:08.759Z,1009.87
2022-09-21T07:00:08.739Z,1009.86
2022-09-21T07:01:08.858Z,1009.84
2022-09-21T07:02:08.809Z,1009.85
2022-09-21T07:03:08.710Z,1009.85
2022-09-21T07:04:09.724Z,1009.86
2022-09-21T07:05:08.672Z,1009.88
2022-09-21T07:06:08.653Z,1009.87
2022-09-21T07:07:08.643Z,1009.89
2022-09-21T07:10:04.865Z,1009.90
2022-09-21T07:10:14.391Z,1009.92
2022-09-21T07:11:09.601Z,1009.94
2022-09-21T07:12:08.573Z,1009.96
2022-09-21T07:13:09.532Z,1009.91
2022-09-21T07:14:08.542Z,1009.94
2022-09-21T07:15:08.543Z,1009.96
2022-09-21T07:16:08.557Z,1009.99
2022-09-21T07:17:08.516Z,1009.97
2022-09-21T07:18:08.503Z,1009.98
2022-09-21T07:19:12.087Z,1009.98
2022-09-21T07:20:08.474Z,1009.93
2022-09-21T07:21:08.454Z,1009.97
2022-09-21T07:22:08.442Z,1009.99
2022-09-21T07:23:08.434Z,1010.01
2022-09-21T07:24:11.956Z,1010.02
2022-09-21T07:25:08.405Z,1010.06
2022-09-21T07:26:08.387Z,1010.08
2022-09-21T07:27:08.375Z,1010.10
2022-09-21T07:28:08.367Z,1010.06
2022-09-21T07:29:08.346Z,1010.09
2022-09-21T07:30:08.335Z,1010.07
2022-09-21T07:31:08.317Z,1010.06
2022-09-21T07:32:08.306Z,1010.11
2022-09-21T07:33:08.305Z,1010.07
2022-09-21T07:34:08.406Z,1010.07
2022-09-21T07:35:08.267Z,1010.08
2022-09-21T07:36:08.257Z,1010.11
2022-09-21T07:37:08.248Z,1010.08
2022-09-21T07:38:08.239Z,1010.08
2022-09-21T07:39:08.218Z,1010.10
2022-09-21T07:40:08.224Z,1010.13
2022-09-21T07:41:08.189Z,1010.12
2022-09-21T07:42:08.180Z,1010.12
2022-09-21T07:43:08.166Z,1010.14
2022-09-21T07:44:08.159Z,1010.11
2022-09-21T07:45:08.141Z,1010.14
2022-09-21T07:46:08.175Z,1010.12
2022-09-21T07:47:08.121Z,1010.16
2022-09-21T07:48:08.098Z,1010.15
2022-09-21T07:49:08.109Z,1010.15
2022-09-21T07:50:08.071Z,1010.12
2022-09-21T07:51:08.052Z,1010.15
2022-09-21T07:52:10.732Z,1010.13
2022-09-21T07:53:08.031Z,1010.16
2022-09-21T07:54:08.023Z,1010.14
2022-09-21T07:55:08.004Z,1010.11
2022-09-21T07:56:07.995Z,1010.05
2022-09-21T07:57:07.982Z,1010.08
2022-09-21T07:58:07.972Z,1010.07
2022-09-21T07:59:08.915Z,1010.05
2022-09-21T08:00:07.942Z,1010.06
2022-09-21T08:01:08.094Z,1010.07
2022-09-21T08:02:07.977Z,1010.03
2022-09-21T08:03:07.904Z,1010.08
2022-09-21T08:04:07.884Z,1010.08
2022-09-21T08:05:07.876Z,1010.08
2022-09-21T08:06:07.864Z,1010.10
2022-09-21T08:07:07.865Z,1010.12
2022-09-21T08:08:07.849Z,1010.13
2022-09-21T08:09:07.885Z,1010.15
2022-09-21T08:10:07.817Z,1010.16
2022-09-21T08:11:07.796Z,1010.18
2022-09-21T08:12:07.796Z,1010.17
2022-09-21T08:13:07.786Z,1010.16
2022-09-21T08:14:07.972Z,1010.18
2022-09-21T08:15:11.054Z,1010.18
2022-09-21T08:16:08.749Z,1010.18
2022-09-21T08:17:07.717Z,1010.17
2022-09-21T08:18:07.708Z,1010.15
2022-09-21T08:19:07.690Z,1010.22
2022-09-21T08:20:07.679Z,1010.20
2022-09-21T08:21:07.666Z,1010.19
2022-09-21T08:22:07.660Z,1010.20
2022-09-21T08:23:07.634Z,1010.25
2022-09-21T08:24:07.630Z,1010.19
2022-09-21T08:25:07.610Z,1010.18
2022-09-21T08:26:07.602Z,1010.24
2022-09-21T08:27:07.598Z,1010.20
2022-09-21T08:28:09.839Z,1010.21
2022-09-21T08:29:07.569Z,1010.23
2022-09-21T08:30:07.548Z,1010.26
2022-09-21T08:31:07.574Z,1010.22
2022-09-21T08:32:07.530Z,1010.24
2022-09-21T08:33:07.511Z,1010.21
2022-09-21T08:34:07.584Z,1010.25
2022-09-21T08:35:07.482Z,1010.21
2022-09-21T08:36:07.462Z,1010.19
2022-09-21T08:37:07.463Z,1010.23
2022-09-21T08:38:07.441Z,1010.21
2022-09-21T08:39:07.433Z,1010.21
2022-09-21T08:40:07.461Z,1010.24
2022-09-21T08:41:07.404Z,1010.23
2022-09-21T08:42:07.394Z,1010.21
2022-09-21T08:43:07.375Z,1010.22
2022-09-21T08:44:07.444Z,1010.25
2022-09-21T08:45:07.354Z,1010.22
2022-09-21T08:46:07.350Z,1010.20
2022-09-21T08:47:07.426Z,1010.20
2022-09-21T08:48:07.400Z,1010.25
2022-09-21T08:49:07.306Z,1010.25
2022-09-21T08:50:07.285Z,1010.27
2022-09-21T08:51:07.278Z,1010.29
2022-09-21T08:52:07.266Z,1010.29
2022-09-21T08:53:07.247Z,1010.30
2022-09-21T08:54:07.237Z,1010.34
2022-09-21T08:55:07.218Z,1010.28
2022-09-21T08:56:07.201Z,1010.28
2022-09-21T08:57:07.198Z,1010.31
2022-09-21T08:58:07.211Z,1010.28
2022-09-21T08:59:07.169Z,1010.34
2022-09-21T09:00:07.148Z,1010.34
2022-09-21T09:01:07.523Z,1010.33
2022-09-21T09:02:07.172Z,1010.35
2022-09-21T09:03:07.110Z,1010.34
2022-09-21T09:04:07.332Z,1010.30
2022-09-21T09:05:07.090Z,1010.33
2022-09-21T09:06:07.074Z,1010.30
2022-09-21T09:07:07.070Z,1010.29
2022-09-21T09:08:07.051Z,1010.31
2022-09-21T09:09:07.084Z,1010.23
2022-09-21T09:10:07.025Z,1010.26
2022-09-21T09:11:07.012Z,1010.26
2022-09-21T09:12:10.842Z,1010.25
2022-09-21T09:13:06.991Z,1010.24
2022-09-21T09:14:06.963Z,1010.20
2022-09-21T09:15:06.963Z,1010.28
2022-09-21T09:16:06.962Z,1010.23
2022-09-21T09:17:06.941Z,1010.30
2022-09-21T09:18:06.914Z,1010.27
2022-09-21T09:19:06.964Z,1010.19
2022-09-21T09:20:06.891Z,1010.23
2022-09-21T09:21:06.875Z,1010.13
2022-09-21T09:22:06.866Z,1010.16
2022-09-21T09:23:06.855Z,1010.14
2022-09-21T09:24:06.839Z,1010.15
2022-09-21T09:25:06.833Z,1010.14
2022-09-21T09:26:06.805Z,1010.18
2022-09-21T09:27:06.813Z,1010.14
2022-09-21T09:28:06.786Z,1010.17
2022-09-21T09:29:06.784Z,1010.14
2022-09-21T09:30:06.757Z,1010.17
2022-09-21T09:31:06.772Z,1010.10
2022-09-21T09:32:06.739Z,1010.10
2022-09-21T09:33:06.728Z,1010.09
2022-09-21T09:34:06.833Z,1010.08
2022-09-21T09:35:06.699Z,1010.05
2022-09-21T09:36:06.692Z,1010.03
2022-09-21T09:37:06.679Z,1010.07
2022-09-21T09:38:06.663Z,1010.08
2022-09-21T09:39:06.650Z,1010.10
2022-09-21T09:40:06.675Z,1010.09
2022-09-21T09:41:06.621Z,1010.06
2022-09-21T09:42:06.611Z,1010.03
2022-09-21T09:43:06.599Z,1010.04
2022-09-21T09:44:06.581Z,1010.05
2022-09-21T09:45:06.573Z,1010.05
2022-09-21T09:46:07.974Z,1010.00
2022-09-21T09:47:06.634Z,1010.06
2022-09-21T09:48:06.529Z,1010.08
2022-09-21T09:49:06.621Z,1010.06
2022-09-21T09:50:06.507Z,1010.07
2022-09-21T09:51:06.494Z,1010.07
2022-09-21T09:52:06.484Z,1010.08
2022-09-21T09:53:06.464Z,1010.01
2022-09-21T09:54:10.139Z,1010.06
2022-09-21T09:55:06.448Z,1010.04
2022-09-21T09:56:06.431Z,1010.03
2022-09-21T09:57:06.423Z,1010.04
2022-09-21T09:58:06.396Z,1010.00
2022-09-21T09:59:06.386Z,1010.01
2022-09-21T10:00:06.385Z,1009.97
2022-09-21T10:01:06.370Z,1010.05
2022-09-21T10:02:06.391Z,1010.00
2022-09-21T10:03:06.334Z,1009.94
2022-09-21T10:04:06.433Z,1009.96
2022-09-21T10:05:06.427Z,1009.93
2022-09-21T10:06:06.308Z,1009.96
2022-09-21T10:07:07.229Z,1009.97
2022-09-21T10:08:06.269Z,1009.94
2022-09-21T10:09:06.258Z,1009.95
2022-09-21T10:10:06.249Z,1009.98
2022-09-21T10:11:06.240Z,1009.96
2022-09-21T10:12:10.209Z,1010.04
2022-09-21T10:13:06.200Z,1009.98
2022-09-21T10:14:06.255Z,1009.99
2022-09-21T10:15:06.170Z,1009.99
2022-09-21T10:16:06.221Z,1009.98
2022-09-21T10:17:06.152Z,1009.97
2022-09-21T10:18:06.140Z,1009.96
2022-09-21T10:19:06.122Z,1009.94
2022-09-21T10:20:06.129Z,1009.94
2022-09-21T10:21:06.094Z,1009.97
2022-09-21T10:22:06.090Z,1009.91
2022-09-21T10:23:07.014Z,1009.94
2022-09-21T10:24:06.208Z,1009.95
2022-09-21T10:25:06.051Z,1009.95
2022-09-21T10:26:06.035Z,1009.96
2022-09-21T10:27:06.015Z,1009.93
2022-09-21T10:28:06.016Z,1009.91
2022-09-21T10:29:06.069Z,1009.98
2022-09-21T10:30:05.988Z,1009.96
2022-09-21T10:31:05.967Z,1009.96
2022-09-21T10:32:05.956Z,1009.94
2022-09-21T10:33:05.934Z,1009.95
2022-09-21T10:34:06.035Z,1009.90
2022-09-21T10:35:05.915Z,1009.96
2022-09-21T10:36:05.906Z,1009.93
2022-09-21T10:37:05.890Z,1009.91
2022-09-21T10:38:05.868Z,1009.93
2022-09-21T10:39:05.859Z,1009.90
2022-09-21T10:40:05.873Z,1009.91
2022-09-21T10:41:05.833Z,1009.85
2022-09-21T10:42:05.825Z,1009.93
2022-09-21T10:43:05.811Z,1009.85
2022-09-21T10:44:05.790Z,1009.85
2022-09-21T10:45:05.780Z,1009.87
2022-09-21T10:46:05.835Z,1009.86
2022-09-21T10:47:05.759Z,1009.87
2022-09-21T10:48:05.741Z,1009.87
2022-09-21T10:49:05.857Z,1009.84
2022-09-21T10:50:05.722Z,1009.81
2022-09-21T10:51:05.707Z,1009.81
2022-09-21T10:52:05.692Z,1009.79
2022-09-21T10:53:05.681Z,1009.82
2022-09-21T10:54:05.787Z,1009.82
2022-09-21T10:55:05.653Z,1009.81
2022-09-21T10:56:15.582Z,1009.82
2022-09-21T10:57:06.624Z,1009.80
2022-09-21T10:58:05.614Z,1009.82
2022-09-21T10:59:05.604Z,1009.77
2022-09-21T11:00:05.585Z,1009.82
2022-09-21T11:01:05.594Z,1009.70
2022-09-21T11:02:05.592Z,1009.69
2022-09-21T11:03:05.599Z,1009.66
2022-09-21T11:04:05.583Z,1009.68
2022-09-21T11:05:05.510Z,1009.66
2022-09-21T11:06:05.507Z,1009.69
2022-09-21T11:07:05.487Z,1009.67
2022-09-21T11:08:05.478Z,1009.63
2022-09-21T11:09:05.470Z,1009.66
2022-09-21T11:10:05.465Z,1009.64
2022-09-21T11:11:05.432Z,1009.62
2022-09-21T11:12:05.419Z,1009.65
2022-09-21T11:13:05.410Z,1009.70
2022-09-21T11:14:05.409Z,1009.60
2022-09-21T11:15:05.379Z,1009.63
2022-09-21T11:16:05.417Z,1009.68
2022-09-21T11:17:05.361Z,1009.66
2022-09-21T11:18:05.342Z,1009.68
2022-09-21T11:19:05.436Z,1009.66
2022-09-21T11:20:05.323Z,1009.63
2022-09-21T11:21:05.303Z,1009.63
2022-09-21T11:22:05.292Z,1009.59
2022-09-21T11:23:06.231Z,1009.65
2022-09-21T11:24:05.275Z,1009.60
2022-09-21T11:25:05.244Z,1009.63
2022-09-21T11:26:05.234Z,1009.61
2022-09-21T11:27:06.164Z,1009.63
2022-09-21T11:28:05.214Z,1009.63
2022-09-21T11:29:05.343Z,1009.64
2022-09-21T11:30:05.186Z,1009.67
2022-09-21T11:31:05.218Z,1009.63
2022-09-21T11:32:06.092Z,1009.67
2022-09-21T11:33:05.147Z,1009.65
2022-09-21T11:34:05.293Z,1009.63
2022-09-21T11:35:05.125Z,1009.57
2022-09-21T11:36:05.107Z,1009.60
2022-09-21T11:37:05.107Z,1009.63
2022-09-21T11:38:05.078Z,1009.65
2022-09-21T11:39:05.078Z,1009.66
2022-09-21T11:40:05.140Z,1009.64
2022-09-21T11:41:05.083Z,1009.67
2022-09-21T11:42:05.029Z,1009.67
2022-09-21T11:43:05.010Z,1009.64
2022-09-21T11:44:06.130Z,1009.68
2022-09-21T11:45:06.062Z,1009.64
2022-09-21T11:46:05.038Z,1009.62
2022-09-21T11:47:04.951Z,1009.69
2022-09-21T11:48:04.949Z,1009.68
2022-09-21T11:49:04.985Z,1009.63
2022-09-21T11:50:26.426Z,1009.61
2022-09-21T11:51:05.902Z,1009.64
2022-09-21T11:52:04.901Z,1009.60
2022-09-21T11:53:04.880Z,1009.58
2022-09-21T11:54:04.873Z,1009.59
2022-09-21T11:55:04.844Z,1009.57
2022-09-21T11:56:04.834Z,1009.59
2022-09-21T11:57:04.825Z,1009.52
2022-09-21T11:58:04.818Z,1009.52
2022-09-21T11:59:04.905Z,1009.44
2022-09-21T12:00:04.792Z,1009.42
2022-09-21T12:01:04.793Z,1009.44
2022-09-21T12:02:04.825Z,1009.46
2022-09-21T12:03:04.739Z,1009.43
2022-09-21T12:04:04.781Z,1009.48
2022-09-21T12:05:04.729Z,1009.48
2022-09-21T12:06:04.708Z,1009.49